| time (UTC) | temp C | wind direction | speed KPH | gust KPH | rain 1hr cm | rain 24hr cm | rain mn cm | humidity % | barometer mb |
| 20260906141221 | 30 | 307 | 3.2 | 3.2 | 0.00 | 0.00 | 0.00 | 72 | 1011.5 |
| 20260906140721 | 28 | 307 | 0.0 | 1.6 | 0.00 | 0.00 | 0.00 | 76 | 1011.4 |
| 20260906140216 | 28 | 307 | 0.0 | 1.6 | 0.00 | 0.00 | 0.00 | 78 | 1011.5 |
| 20260906135712 | 27 | 307 | 0.0 | 1.6 | 0.00 | 0.00 | 0.00 | 79 | 1011.9 |
| 20260906135208 | 27 | 307 | 3.2 | 3.2 | 0.00 | 0.00 | 0.00 | 80 | 1011.7 |
| 20260906134704 | 27 | 307 | 3.2 | 3.2 | 0.00 | 0.00 | 0.00 | 82 | 1012.0 |
| 20260906134159 | 26 | 305 | 4.8 | 4.8 | 0.00 | 0.00 | 0.00 | 83 | 1011.8 |
| 20260906133654 | 26 | 309 | 4.8 | 4.8 | 0.00 | 0.00 | 0.00 | 83 | 1011.8 |
| 20260906133150 | 26 | 312 | 1.6 | 1.6 | 0.00 | 0.00 | 0.00 | 83 | 1011.7 |
| 20260906132645 | 26 | 309 | 4.8 | 4.8 | 0.00 | 0.00 | 0.00 | 84 | 1011.8 |
| 20260906132141 | 26 | 320 | 3.2 | 3.2 | 0.00 | 0.00 | 0.00 | 84 | 1012.1 |
| 20260906131636 | 26 | 320 | 3.2 | 3.2 | 0.00 | 0.00 | 0.00 | 85 | 1011.9 |
| 20260906131131 | 25 | 318 | 1.6 | 1.6 | 0.00 | 0.00 | 0.00 | 85 | 1011.9 |
| 20260906130626 | 25 | 317 | 1.6 | 4.8 | 0.00 | 0.00 | 0.00 | 85 | 1011.7 |
| 20260906130121 | 25 | 3 | 1.6 | 1.6 | 0.00 | 0.00 | 0.00 | 86 | 1011.8 |
| 20260906125619 | 25 | 3 | 1.6 | 1.6 | 0.00 | 0.00 | 0.00 | 86 | 1012.0 |
| 20260906125118 | 25 | 4 | 1.6 | 1.6 | 0.00 | 0.00 | 0.00 | 86 | 1012.0 |
| 20260906124614 | 25 | 4 | 1.6 | 3.2 | 0.00 | 0.00 | 0.00 | 86 | 1012.1 |
| 20260906124108 | 25 | 4 | 1.6 | 1.6 | 0.00 | 0.00 | 0.00 | 86 | 1012.1 |
| 20260906123608 | 24 | 5 | 0.0 | 0.0 | 0.00 | 0.00 | 0.00 | 88 | 1012.2 |
| 20260906123103 | 24 | 5 | 0.0 | 1.6 | 0.00 | 0.00 | 0.00 | 90 | 1012.1 |
| 20260906122601 | 24 | 344 | 1.6 | 1.6 | 0.00 | 0.00 | 0.00 | 89 | 1011.9 |
| 20260906122058 | 24 | 347 | 0.0 | 0.0 | 0.00 | 0.00 | 0.00 | 91 | 1012.1 |
| 20260906121554 | 23 | 347 | 1.6 | 1.6 | 0.00 | 0.00 | 0.00 | 91 | 1011.7 |
| 20260906121051 | 23 | 341 | 4.8 | 4.8 | 0.00 | 0.00 | 0.00 | 92 | 1012.2 |
| 20260906120545 | 23 | 6 | 0.0 | 0.0 | 0.00 | 0.00 | 0.00 | 96 | 1011.8 |
| 20260906120043 | 23 | 6 | 1.6 | 1.6 | 0.00 | 0.00 | 0.00 | 96 | 1011.6 |
| 20260906115543 | 23 | 6 | 0.0 | 0.0 | 0.00 | 0.00 | 0.00 | 97 | 1011.5 |
| 20260906115038 | 23 | 6 | 0.0 | 1.6 | 0.00 | 0.00 | 0.00 | 97 | 1011.5 |
| 20260906114538 | 23 | 6 | 1.6 | 1.6 | 0.00 | 0.00 | 0.00 | 97 | 1011.6 |
| 20260906114033 | 23 | 6 | 1.6 | 1.6 | 0.00 | 0.00 | 0.00 | 97 | 1011.7 |
| 20260906113532 | 23 | 6 | 1.6 | 1.6 | 0.00 | 0.00 | 0.00 | 97 | 1011.8 |
| 20260906113028 | 23 | 6 | 1.6 | 1.6 | 0.00 | 0.00 | 0.00 | 97 | 1011.4 |
| 20260906112522 | 23 | 4 | 0.0 | 1.6 | 0.00 | 0.00 | 0.00 | 96 | 1011.7 |
| 20260906112019 | 23 | 4 | 1.6 | 1.6 | 0.00 | 0.00 | 0.00 | 96 | 1011.7 |
| 20260906111518 | 23 | 4 | 0.0 | 0.0 | 0.00 | 0.00 | 0.00 | 96 | 1011.7 |
| 20260906111014 | 23 | 4 | 0.0 | 0.0 | 0.00 | 0.00 | 0.00 | 96 | 1011.5 |
| 20260906110508 | 23 | 4 | 1.6 | 1.6 | 0.00 | 0.00 | 0.00 | 96 | 1011.6 |
| 20260906110008 | 23 | 4 | 0.0 | 1.6 | 0.00 | 0.00 | 0.00 | 96 | 1011.3 |
| 20260906105503 | 23 | 5 | 1.6 | 1.6 | 0.00 | 0.00 | 0.00 | 95 | 1011.3 |
| 20260906104959 | 23 | 2 | 1.6 | 1.6 | 0.00 | 0.00 | 0.00 | 95 | 1011.3 |
| 20260906104457 | 24 | 339 | 1.6 | 1.6 | 0.00 | 0.00 | 0.00 | 93 | 1011.2 |
| 20260906103957 | 23 | 340 | 1.6 | 1.6 | 0.00 | 0.00 | 0.00 | 93 | 1011.3 |
| 20260906103455 | 23 | 338 | 1.6 | 1.6 | 0.00 | 0.00 | 0.00 | 95 | 1011.2 |
| 20260906102950 | 23 | 4 | 0.0 | 1.6 | 0.00 | 0.00 | 0.00 | 96 | 1011.4 |
| 20260906102451 | 23 | 8 | 0.0 | 0.0 | 0.00 | 0.00 | 0.00 | 96 | 1011.3 |
| 20260906101951 | 23 | 8 | 0.0 | 1.6 | 0.00 | 0.00 | 0.00 | 95 | 1011.0 |
| 20260906101446 | 23 | 8 | 1.6 | 1.6 | 0.00 | 0.00 | 0.00 | 95 | 1011.2 |
| 20260906100946 | 23 | 8 | 0.0 | 0.0 | 0.00 | 0.00 | 0.00 | 95 | 1011.0 |
| 20260906100441 | 24 | 8 | 0.0 | 0.0 | 0.00 | 0.00 | 0.00 | 95 | 1011.3 |
| 20260906095936 | 24 | 8 | 0.0 | 1.6 | 0.00 | 0.00 | 0.00 | 94 | 1011.1 |
| 20260906095431 | 24 | 8 | 1.6 | 1.6 | 0.00 | 0.00 | 0.00 | 94 | 1011.2 |
| 20260906094926 | 23 | 9 | 1.6 | 3.2 | 0.00 | 0.00 | 0.00 | 96 | 1011.1 |
| 20260906094420 | 23 | 21 | 0.0 | 1.6 | 0.00 | 0.00 | 0.00 | 96 | 1011.2 |
| 20260906093916 | 23 | 28 | 0.0 | 0.0 | 0.00 | 0.00 | 0.00 | 97 | 1010.9 |
| 20260906093413 | 23 | 123 | 1.6 | 1.6 | 0.00 | 0.00 | 0.00 | 97 | 1011.4 |
| 20260906092913 | 23 | 123 | 0.0 | 0.0 | 0.00 | 0.00 | 0.00 | 97 | 1010.8 |
| 20260906092412 | 23 | 123 | 0.0 | 1.6 | 0.00 | 0.00 | 0.00 | 97 | 1010.9 |
| 20260906091908 | 23 | 123 | 0.0 | 1.6 | 0.00 | 0.00 | 0.00 | 97 | 1010.9 |
| 20260906091404 | 23 | 123 | 1.6 | 1.6 | 0.00 | 0.00 | 0.00 | 97 | 1010.9 |
| 20260906090900 | 23 | 123 | 0.0 | 1.6 | 0.00 | 0.00 | 0.00 | 97 | 1011.0 |
| 20260906090400 | 23 | 123 | 0.0 | 0.0 | 0.00 | 0.00 | 0.00 | 97 | 1011.0 |
| 20260906085854 | 23 | 123 | 0.0 | 0.0 | 0.00 | 0.00 | 0.00 | 98 | 1010.8 |
| 20260906085354 | 23 | 123 | 0.0 | 0.0 | 0.00 | 0.00 | 0.00 | 98 | 1011.1 |
| 20260906084848 | 23 | 123 | 0.0 | 0.0 | 0.00 | 0.00 | 0.00 | 98 | 1010.9 |
| 20260906084348 | 23 | 123 | 0.0 | 0.0 | 0.00 | 0.00 | 0.00 | 98 | 1010.8 |
| 20260906083842 | 23 | 123 | 0.0 | 0.0 | 0.00 | 0.00 | 0.00 | 98 | 1011.1 |
| 20260906083338 | 23 | 123 | 0.0 | 0.0 | 0.00 | 0.00 | 0.00 | 98 | 1010.9 |
| 20260906082838 | 23 | 123 | 0.0 | 1.6 | 0.00 | 0.00 | 0.00 | 98 | 1010.8 |
| 20260906082333 | 23 | 123 | 0.0 | 0.0 | 0.00 | 0.00 | 0.00 | 98 | 1010.9 |
| 20260906081829 | 23 | 123 | 0.0 | 0.0 | 0.00 | 0.00 | 0.00 | 97 | 1010.5 |
| 20260906081324 | 23 | 123 | 1.6 | 3.2 | 0.00 | 0.00 | 0.00 | 97 | 1010.5 |
| 20260906080820 | 23 | 123 | 1.6 | 1.6 | 0.00 | 0.00 | 0.00 | 98 | 1010.5 |
| 20260906080316 | 23 | 123 | 0.0 | 1.6 | 0.00 | 0.00 | 0.00 | 97 | 1010.6 |
| 20260906075816 | 23 | 123 | 1.6 | 1.6 | 0.00 | 0.00 | 0.00 | 97 | 1010.4 |
| 20260906075316 | 23 | 123 | 3.2 | 1.6 | 0.00 | 0.00 | 0.00 | 97 | 1010.5 |
| 20260906074811 | 23 | 123 | 1.6 | 1.6 | 0.00 | 0.00 | 0.00 | 97 | 1010.6 |
| 20260906074311 | 23 | 123 | 1.6 | 1.6 | 0.00 | 0.00 | 0.00 | 97 | 1010.4 |
| 20260906073810 | 23 | 123 | 0.0 | 0.0 | 0.00 | 0.00 | 0.00 | 97 | 1010.4 |
| 20260906073305 | 23 | 123 | 0.0 | 0.0 | 0.00 | 0.00 | 0.00 | 97 | 1010.6 |
| 20260906072801 | 23 | 123 | 0.0 | 0.0 | 0.00 | 0.00 | 0.00 | 97 | 1010.4 |
| 20260906072257 | 23 | 123 | 3.2 | 3.2 | 0.00 | 0.00 | 0.00 | 97 | 1010.6 |
| 20260906071752 | 23 | 123 | 0.0 | 0.0 | 0.00 | 0.00 | 0.00 | 97 | 1010.4 |
| 20260906071252 | 23 | 123 | 1.6 | 1.6 | 0.00 | 0.00 | 0.00 | 97 | 1010.5 |
| 20260906070749 | 23 | 123 | 1.6 | 1.6 | 0.00 | 0.00 | 0.00 | 97 | 1010.6 |
| 20260906070244 | 23 | 123 | 0.0 | 0.0 | 0.00 | 0.00 | 0.00 | 97 | 1010.8 |
| 20260906065744 | 23 | 123 | 1.6 | 1.6 | 0.00 | 0.00 | 0.00 | 97 | 1010.6 |
| 20260906065239 | 23 | 123 | 1.6 | 3.2 | 0.00 | 0.00 | 0.00 | 97 | 1010.8 |
| 20260906064735 | 23 | 123 | 1.6 | 1.6 | 0.00 | 0.00 | 0.00 | 97 | 1010.8 |
| 20260906064230 | 23 | 123 | 0.0 | 0.0 | 0.00 | 0.00 | 0.00 | 97 | 1010.8 |
| 20260906063725 | 23 | 123 | 1.6 | 1.6 | 0.00 | 0.00 | 0.00 | 97 | 1010.8 |
| 20260906063221 | 23 | 123 | 1.6 | 1.6 | 0.00 | 0.00 | 0.00 | 96 | 1010.8 |
| 20260906062716 | 23 | 123 | 1.6 | 1.6 | 0.00 | 0.00 | 0.00 | 96 | 1010.9 |
| 20260906062215 | 23 | 123 | 1.6 | 1.6 | 0.00 | 0.00 | 0.00 | 96 | 1011.0 |
| 20260906061711 | 23 | 123 | 0.0 | 0.0 | 0.00 | 0.00 | 0.00 | 96 | 1011.3 |
| 20260906061207 | 24 | 123 | 1.6 | 1.6 | 0.00 | 0.00 | 0.00 | 96 | 1011.2 |
| 20260906060703 | 24 | 123 | 1.6 | 1.6 | 0.00 | 0.00 | 0.00 | 96 | 1011.3 |
| 20260906060200 | 23 | 123 | 0.0 | 0.0 | 0.00 | 0.00 | 0.00 | 96 | 1011.2 |
| 20260906055655 | 23 | 123 | 0.0 | 0.0 | 0.00 | 0.00 | 0.00 | 96 | 1011.3 |
| 20260906055150 | 24 | 123 | 0.0 | 0.0 | 0.00 | 0.00 | 0.00 | 96 | 1011.2 |
| 20260906054646 | 24 | 123 | 1.6 | 1.6 | 0.00 | 0.00 | 0.00 | 96 | 1011.3 |
| 20260906054140 | 24 | 123 | 0.0 | 0.0 | 0.00 | 0.00 | 0.00 | 96 | 1011.4 |
| 20260906053637 | 24 | 123 | 0.0 | 0.0 | 0.00 | 0.00 | 0.00 | 96 | 1011.5 |
| 20260906053137 | 24 | 123 | 0.0 | 1.6 | 0.00 | 0.00 | 0.00 | 96 | 1011.2 |
| 20260906052633 | 24 | 123 | 0.0 | 0.0 | 0.00 | 0.00 | 0.00 | 96 | 1011.2 |
| 20260906052129 | 24 | 123 | 0.0 | 1.6 | 0.00 | 0.00 | 0.00 | 96 | 1011.4 |
| 20260906051626 | 24 | 123 | 1.6 | 1.6 | 0.00 | 0.00 | 0.00 | 95 | 1011.3 |
| 20260906051125 | 24 | 123 | 1.6 | 1.6 | 0.00 | 0.00 | 0.00 | 95 | 1011.3 |
| 20260906050621 | 24 | 123 | 3.2 | 1.6 | 0.00 | 0.00 | 0.00 | 95 | 1011.5 |
| 20260906050116 | 24 | 123 | 3.2 | 3.2 | 0.00 | 0.00 | 0.00 | 95 | 1011.3 |
| 20260906045614 | 24 | 123 | 4.8 | 3.2 | 0.00 | 0.00 | 0.00 | 95 | 1011.3 |
| 20260906045110 | 24 | 123 | 3.2 | 1.6 | 0.00 | 0.00 | 0.00 | 95 | 1011.4 |
| 20260906044606 | 24 | 123 | 4.8 | 3.2 | 0.00 | 0.00 | 0.00 | 95 | 1011.2 |
| 20260906044101 | 24 | 123 | 1.6 | 1.6 | 0.00 | 0.00 | 0.00 | 94 | 1011.3 |
| 20260906043557 | 24 | 123 | 1.6 | 1.6 | 0.00 | 0.00 | 0.00 | 94 | 1011.4 |
| 20260906043052 | 24 | 123 | 1.6 | 1.6 | 0.00 | 0.00 | 0.00 | 93 | 1011.1 |
| 20260906042551 | 25 | 123 | 4.8 | 4.8 | 0.00 | 0.00 | 0.00 | 93 | 1011.3 |
| 20260906042046 | 25 | 123 | 0.0 | 1.6 | 0.00 | 0.00 | 0.00 | 93 | 1011.5 |
| 20260906041542 | 25 | 123 | 1.6 | 1.6 | 0.00 | 0.00 | 0.00 | 92 | 1011.6 |
| 20260906041037 | 25 | 123 | 0.0 | 1.6 | 0.00 | 0.00 | 0.00 | 92 | 1011.6 |
| 20260906040532 | 25 | 124 | 0.0 | 0.0 | 0.00 | 0.00 | 0.00 | 92 | 1011.4 |
| 20260906040028 | 24 | 92 | 1.6 | 1.6 | 0.00 | 1.24 | 1.24 | 93 | 1011.2 |
| 20260906035522 | 24 | 121 | 3.2 | 3.2 | 0.00 | 1.24 | 1.24 | 92 | 1011.6 |
| 20260906035019 | 24 | 92 | 3.2 | 3.2 | 0.00 | 1.24 | 1.24 | 92 | 1011.3 |
| 20260906034518 | 25 | 124 | 3.2 | 3.2 | 0.00 | 1.24 | 1.24 | 92 | 1011.4 |
| 20260906034013 | 25 | 123 | 3.2 | 3.2 | 0.00 | 1.24 | 1.24 | 91 | 1011.7 |
| 20260906033508 | 25 | 92 | 3.2 | 3.2 | 0.00 | 1.24 | 1.24 | 90 | 1011.9 |
| 20260906033004 | 25 | 122 | 1.6 | 3.2 | 0.00 | 1.24 | 1.24 | 90 | 1011.7 |
| 20260906032501 | 25 | 134 | 1.6 | 1.6 | 0.00 | 1.24 | 1.24 | 92 | 1011.5 |
| 20260906032000 | 25 | 134 | 0.0 | 0.0 | 0.00 | 1.24 | 1.24 | 91 | 1011.6 |
| 20260906031456 | 25 | 134 | 0.0 | 1.6 | 0.00 | 1.24 | 1.24 | 90 | 1012.0 |
| 20260906030951 | 25 | 134 | 1.6 | 3.2 | 0.00 | 1.24 | 1.24 | 90 | 1012.0 |
| 20260906030446 | 25 | 134 | 1.6 | 1.6 | 0.00 | 1.24 | 1.24 | 90 | 1012.0 |
| 20260906025940 | 25 | 134 | 0.0 | 0.0 | 0.00 | 1.24 | 1.24 | 89 | 1012.1 |
| 20260906025440 | 25 | 134 | 1.6 | 1.6 | 0.00 | 1.24 | 1.24 | 89 | 1012.1 |
| 20260906024939 | 25 | 134 | 0.0 | 0.0 | 0.00 | 1.24 | 1.24 | 87 | 1012.0 |
| 20260906024439 | 25 | 134 | 0.0 | 0.0 | 0.00 | 1.24 | 1.24 | 87 | 1012.0 |
| 20260906023939 | 25 | 134 | 0.0 | 0.0 | 0.00 | 1.24 | 1.24 | 89 | 1011.9 |
| 20260906023436 | 25 | 135 | 3.2 | 3.2 | 0.00 | 1.24 | 1.24 | 88 | 1012.0 |
| 20260906022936 | 25 | 151 | 1.6 | 1.6 | 0.00 | 1.24 | 1.24 | 88 | 1012.2 |
| 20260906022431 | 25 | 151 | 0.0 | 0.0 | 0.00 | 1.24 | 1.24 | 87 | 1012.4 |
| 20260906021926 | 25 | 151 | 0.0 | 1.6 | 0.00 | 1.24 | 1.24 | 88 | 1012.1 |
| 20260906021426 | 25 | 151 | 0.0 | 0.0 | 0.00 | 1.24 | 1.24 | 89 | 1012.0 |
| 20260906020926 | 25 | 151 | 0.0 | 3.2 | 0.00 | 1.24 | 1.24 | 90 | 1011.9 |
| 20260906020421 | 25 | 154 | 4.8 | 4.8 | 0.00 | 1.24 | 1.24 | 92 | 1011.5 |
| 20260906015921 | 25 | 154 | 1.6 | 1.6 | 0.00 | 1.24 | 1.24 | 92 | 1011.7 |
| 20260906015421 | 25 | 154 | 3.2 | 3.2 | 0.00 | 1.24 | 1.24 | 91 | 1011.6 |
| 20260906014920 | 25 | 139 | 3.2 | 3.2 | 0.00 | 1.24 | 1.24 | 93 | 1011.7 |
| 20260906014420 | 25 | 138 | 1.6 | 1.6 | 0.00 | 1.24 | 1.24 | 93 | 1011.6 |
| 20260906013916 | 25 | 138 | 0.0 | 0.0 | 0.00 | 1.24 | 1.24 | 92 | 1011.2 |
| 20260906013412 | 25 | 138 | 1.6 | 1.6 | 0.00 | 1.24 | 1.24 | 92 | 1011.2 |
| 20260906012907 | 25 | 138 | 3.2 | 3.2 | 0.00 | 1.24 | 1.24 | 92 | 1011.1 |
| 20260906012402 | 25 | 138 | 1.6 | 1.6 | 0.00 | 1.24 | 1.24 | 92 | 1011.2 |
| 20260906011901 | 25 | 138 | 0.0 | 0.0 | 0.00 | 1.24 | 1.24 | 92 | 1011.2 |
| 20260906011356 | 25 | 138 | 1.6 | 1.6 | 0.00 | 1.24 | 1.24 | 92 | 1010.6 |
| 20260906010852 | 25 | 138 | 1.6 | 1.6 | 0.00 | 1.24 | 1.24 | 91 | 1010.8 |
| 20260906010348 | 25 | 138 | 1.6 | 1.6 | 0.00 | 1.24 | 1.24 | 90 | 1010.6 |
| 20260906005843 | 25 | 138 | 0.0 | 0.0 | 0.00 | 1.24 | 1.24 | 91 | 1010.4 |
| 20260906005342 | 25 | 138 | 0.0 | 1.6 | 0.00 | 1.24 | 1.24 | 91 | 1010.3 |
| 20260906004841 | 25 | 138 | 1.6 | 1.6 | 0.00 | 1.24 | 1.24 | 91 | 1010.2 |
| 20260906004341 | 25 | 138 | 1.6 | 1.6 | 0.00 | 1.24 | 1.24 | 91 | 1010.0 |
| 20260906003836 | 25 | 138 | 3.2 | 3.2 | 0.00 | 1.24 | 1.24 | 91 | 1010.2 |
| 20260906003332 | 26 | 138 | 1.6 | 1.6 | 0.00 | 1.24 | 1.24 | 90 | 1010.3 |
| 20260906002827 | 26 | 138 | 0.0 | 1.6 | 0.00 | 1.24 | 1.24 | 89 | 1010.2 |
| 20260906002326 | 26 | 138 | 3.2 | 3.2 | 0.00 | 1.24 | 1.24 | 88 | 1010.0 |
| 20260906001822 | 26 | 138 | 1.6 | 1.6 | 0.00 | 1.24 | 1.24 | 86 | 1009.9 |
| 20260906001318 | 26 | 138 | 1.6 | 1.6 | 0.00 | 1.24 | 1.24 | 88 | 1010.0 |
| 20260906000813 | 26 | 138 | 1.6 | 1.6 | 0.00 | 1.24 | 1.24 | 87 | 1009.9 |
| 20260906000307 | 26 | 138 | 4.8 | 3.2 | 0.00 | 1.24 | 1.24 | 88 | 1010.0 |
| 20260905235802 | 26 | 139 | 3.2 | 3.2 | 0.00 | 1.24 | 1.24 | 87 | 1010.2 |
| 20260905235306 | 27 | 139 | 3.2 | 3.2 | 0.00 | 1.24 | 1.24 | 88 | 1010.2 |
| 20260905234758 | 27 | 139 | 1.6 | 1.6 | 0.00 | 1.24 | 1.24 | 86 | 1010.5 |
| 20260905234253 | 27 | 139 | 0.0 | 3.2 | 0.00 | 1.24 | 1.24 | 85 | 1010.4 |
| 20260905233748 | 27 | 139 | 3.2 | 3.2 | 0.00 | 1.24 | 1.24 | 85 | 1010.3 |
| 20260905233248 | 27 | 139 | 0.0 | 0.0 | 0.00 | 1.24 | 1.24 | 84 | 1010.3 |
| 20260905232747 | 27 | 139 | 0.0 | 1.6 | 0.00 | 1.24 | 1.24 | 85 | 1010.0 |
| 20260905232243 | 27 | 139 | 3.2 | 3.2 | 0.00 | 1.24 | 1.24 | 87 | 1010.3 |
| 20260905231739 | 27 | 139 | 3.2 | 3.2 | 0.00 | 1.24 | 1.24 | 86 | 1010.4 |
| 20260905231234 | 27 | 139 | 3.2 | 3.2 | 0.00 | 1.24 | 1.24 | 87 | 1010.4 |
| 20260905230730 | 27 | 139 | 1.6 | 3.2 | 0.00 | 1.24 | 1.24 | 87 | 1010.4 |
| 20260905230228 | 27 | 139 | 1.6 | 1.6 | 0.00 | 1.24 | 1.24 | 85 | 1010.3 |
| 20260905225727 | 27 | 139 | 3.2 | 3.2 | 0.00 | 1.24 | 1.24 | 86 | 1010.4 |
| 20260905225223 | 27 | 139 | 3.2 | 3.2 | 0.00 | 1.24 | 1.24 | 86 | 1010.4 |
| 20260905224722 | 27 | 139 | 1.6 | 1.6 | 0.00 | 1.24 | 1.24 | 87 | 1010.4 |
| 20260905224217 | 27 | 139 | 3.2 | 1.6 | 0.00 | 1.24 | 1.24 | 86 | 1010.2 |
| 20260905223714 | 27 | 139 | 1.6 | 1.6 | 0.00 | 1.24 | 1.24 | 86 | 1010.3 |
| 20260905223210 | 27 | 139 | 3.2 | 3.2 | 0.00 | 1.24 | 1.24 | 86 | 1010.3 |
| 20260905222706 | 27 | 138 | 3.2 | 3.2 | 0.00 | 1.24 | 1.24 | 86 | 1010.5 |
| 20260905222205 | 27 | 139 | 4.8 | 3.2 | 0.00 | 1.24 | 1.24 | 84 | 1010.8 |
| 20260905221701 | 27 | 139 | 0.0 | 1.6 | 0.00 | 1.24 | 1.24 | 86 | 1010.5 |
| 20260905221158 | 27 | 139 | 3.2 | 3.2 | 0.00 | 1.24 | 1.24 | 84 | 1010.4 |
| 20260905220653 | 27 | 139 | 3.2 | 3.2 | 0.00 | 1.24 | 1.24 | 83 | 1010.5 |
| 20260905220149 | 28 | 139 | 1.6 | 3.2 | 0.00 | 1.24 | 1.24 | 81 | 1010.4 |
| 20260905215648 | 28 | 138 | 0.0 | 1.6 | 0.00 | 1.24 | 1.24 | 72 | 1010.4 |
| 20260905215144 | 28 | 136 | 3.2 | 4.8 | 0.00 | 1.24 | 1.24 | 79 | 1010.4 |
| 20260905214640 | 30 | 157 | 1.6 | 3.2 | 0.00 | 1.24 | 1.24 | 69 | 1010.5 |
| 20260905214141 | 30 | 252 | 1.6 | 1.6 | 0.00 | 1.24 | 1.24 | 69 | 1010.3 |
| 20260905213636 | 29 | 114 | 1.6 | 1.6 | 0.00 | 1.24 | 1.24 | 68 | 1010.8 |
| 20260905213131 | 30 | 179 | 1.6 | 3.2 | 0.00 | 1.24 | 1.24 | 66 | 1010.6 |
| 20260905212627 | 30 | 149 | 6.4 | 8.0 | 0.00 | 1.24 | 1.24 | 64 | 1010.5 |
| 20260905212126 | 30 | 241 | 0.0 | 8.0 | 0.00 | 1.24 | 1.24 | 66 | 1010.6 |
| 20260905211621 | 30 | 235 | 1.6 | 4.8 | 0.00 | 1.24 | 1.24 | 67 | 1010.6 |
| 20260905211116 | 29 | 301 | 1.6 | 3.2 | 0.00 | 1.24 | 1.24 | 68 | 1010.6 |
| 20260905210613 | 29 | 161 | 1.6 | 1.6 | 0.00 | 1.24 | 1.24 | 70 | 1011.0 |
| 20260905210107 | 29 | 162 | 1.6 | 1.6 | 0.00 | 1.24 | 1.24 | 73 | 1011.1 |
| 20260905205607 | 28 | 158 | 1.6 | 3.2 | 0.00 | 1.24 | 1.24 | 74 | 1011.0 |
| 20260905205106 | 29 | 247 | 3.2 | 4.8 | 0.00 | 1.24 | 1.24 | 71 | 1010.9 |
| 20260905204601 | 28 | 198 | 1.6 | 3.2 | 0.00 | 1.24 | 1.24 | 72 | 1011.2 |
| 20260905204056 | 28 | 178 | 4.8 | 8.0 | 0.00 | 1.24 | 1.24 | 78 | 1010.9 |
| 20260905203556 | 27 | 197 | 0.0 | 3.2 | 0.00 | 1.24 | 1.24 | 78 | 1010.9 |
| 20260905203051 | 28 | 173 | 3.2 | 8.0 | 0.00 | 1.24 | 1.24 | 77 | 1011.2 |
| 20260905202546 | 27 | 149 | 1.6 | 1.6 | 0.00 | 1.24 | 1.24 | 80 | 1011.2 |
| 20260905202042 | 27 | 123 | 3.2 | 3.2 | 0.00 | 1.24 | 1.24 | 80 | 1011.3 |
| 20260905201538 | 27 | 259 | 1.6 | 4.8 | 0.00 | 1.24 | 1.24 | 81 | 1011.4 |
| 20260905201037 | 27 | 175 | 1.6 | 4.8 | 0.00 | 1.24 | 1.24 | 82 | 1011.8 |
| 20260905200532 | 27 | 214 | 1.6 | 11.3 | 0.00 | 1.24 | 1.24 | 83 | 1011.6 |
| 20260905200032 | 27 | 98 | 6.4 | 11.3 | 0.00 | 1.24 | 1.24 | 87 | 1011.8 |
| 20260905195526 | 27 | 147 | 8.0 | 9.7 | 0.00 | 1.24 | 1.24 | 86 | 1011.8 |
| 20260905195022 | 27 | 84 | 1.6 | 8.0 | 0.00 | 1.24 | 1.24 | 87 | 1011.9 |
| 20260905194522 | 27 | 140 | 9.7 | 11.3 | 0.00 | 1.24 | 1.24 | 85 | 1012.2 |
| 20260905194021 | 26 | 120 | 0.0 | 9.7 | 0.00 | 1.24 | 1.24 | 86 | 1012.4 |
| 20260905193522 | 26 | 160 | 3.2 | 8.0 | 0.00 | 1.24 | 1.24 | 88 | 1012.5 |
| 20260905193017 | 26 | 130 | 4.8 | 8.0 | 0.00 | 1.24 | 1.24 | 89 | 1012.6 |
| 20260905192512 | 26 | 153 | 3.2 | 4.8 | 0.00 | 1.24 | 1.24 | 89 | 1012.5 |
| 20260905192009 | 26 | 167 | 3.2 | 3.2 | 0.00 | 1.24 | 1.24 | 89 | 1012.6 |
| 20260905191507 | 26 | 133 | 3.2 | 4.8 | 0.00 | 1.24 | 1.24 | 87 | 1012.4 |
| 20260905191006 | 26 | 170 | 1.6 | 4.8 | 0.00 | 1.24 | 1.24 | 90 | 1012.5 |
| 20260905190504 | 25 | 145 | 1.6 | 3.2 | 0.00 | 1.24 | 1.24 | 90 | 1012.5 |
| 20260905190004 | 25 | 121 | 3.2 | 3.2 | 0.00 | 1.24 | 1.24 | 90 | 1012.5 |
| 20260905185458 | 25 | 145 | 1.6 | 4.8 | 0.00 | 1.24 | 1.24 | 90 | 1012.4 |
| 20260905184957 | 25 | 154 | 1.6 | 3.2 | 0.00 | 1.24 | 1.24 | 89 | 1012.7 |
| 20260905184452 | 25 | 171 | 0.0 | 1.6 | 0.00 | 1.24 | 1.24 | 92 | 1012.6 |
| 20260905183951 | 25 | 168 | 0.0 | 1.6 | 0.00 | 1.24 | 1.24 | 92 | 1012.6 |
| 20260905183450 | 25 | 254 | 4.8 | 4.8 | 0.00 | 1.24 | 1.24 | 91 | 1012.8 |
| 20260905182945 | 25 | 195 | 0.0 | 3.2 | 0.00 | 1.24 | 1.24 | 92 | 1012.6 |
| 20260905182445 | 25 | 200 | 0.0 | 3.2 | 0.00 | 1.24 | 1.24 | 92 | 1012.9 |
| 20260905181940 | 25 | 233 | 1.6 | 4.8 | 0.00 | 1.24 | 1.24 | 91 | 1012.9 |
| 20260905181435 | 25 | 166 | 1.6 | 3.2 | 0.00 | 1.24 | 1.24 | 91 | 1013.1 |
| 20260905180934 | 25 | 171 | 4.8 | 4.8 | 0.00 | 1.24 | 1.24 | 93 | 1012.9 |
| 20260905180429 | 25 | 193 | 3.2 | 4.8 | 0.00 | 1.24 | 1.24 | 92 | 1013.3 |
| 20260905175924 | 25 | 153 | 4.8 | 8.0 | 0.13 | 1.24 | 1.24 | 91 | 1013.4 |
| 20260905175423 | 25 | 276 | 9.7 | 14.5 | 0.43 | 1.24 | 1.24 | 91 | 1013.5 |
| 20260905174919 | 25 | 208 | 1.6 | 8.0 | 0.30 | 1.22 | 1.22 | 93 | 1013.6 |
| 20260905174415 | 25 | 141 | 3.2 | 4.8 | 0.18 | 1.17 | 1.17 | 92 | 1013.7 |
| 20260905173910 | 24 | 252 | 4.8 | 8.0 | 0.30 | 1.14 | 1.14 | 91 | 1013.6 |
| 20260905173406 | 24 | 260 | 3.2 | 9.7 | 0.71 | 1.14 | 1.14 | 90 | 1013.8 |
| 20260905172907 | 24 | 218 | 4.8 | 8.0 | 1.19 | 1.09 | 1.09 | 92 | 1013.5 |
| 20260905172404 | 23 | 136 | 1.6 | 4.8 | 1.37 | 1.02 | 1.02 | 93 | 1013.6 |
| 20260905171900 | 24 | 105 | 3.2 | 4.8 | 0.61 | 0.86 | 0.86 | 92 | 1013.5 |
| 20260905171357 | 24 | 155 | 6.4 | 8.0 | 0.18 | 0.79 | 0.79 | 92 | 1013.5 |
| 20260905170853 | 25 | 132 | 6.4 | 4.8 | 0.13 | 0.76 | 0.76 | 87 | 1013.7 |
| 20260905170349 | 25 | 237 | 6.4 | 12.9 | 0.18 | 0.74 | 0.74 | 88 | 1013.5 |
| 20260905165848 | 25 | 224 | 1.6 | 3.2 | 0.79 | 0.74 | 0.74 | 83 | 1013.2 |
| 20260905165343 | 25 | 157 | 3.2 | 12.9 | 0.97 | 0.69 | 0.69 | 84 | 1013.5 |
| 20260905164838 | 25 | 171 | 4.8 | 8.0 | 0.61 | 0.58 | 0.58 | 88 | 1013.6 |
| 20260905164333 | 26 | 176 | 4.8 | 8.0 | 1.37 | 0.53 | 0.53 | 84 | 1013.8 |
| 20260905163828 | 27 | 160 | 12.9 | 16.1 | 2.77 | 0.46 | 0.46 | 86 | 1014.1 |
| 20260905163325 | 28 | 126 | 1.6 | 1.6 | 1.50 | 0.25 | 0.25 | 85 | 1013.8 |
| 20260905162821 | 30 | 130 | 3.2 | 4.8 | 0.00 | 0.00 | 0.00 | 74 | 1013.6 |
| 20260905162320 | 30 | 123 | 3.2 | 4.8 | 0.00 | 0.00 | 0.00 | 69 | 1013.3 |
| 20260905161815 | 30 | 217 | 3.2 | 9.7 | 0.00 | 0.00 | 0.00 | 68 | 1013.2 |
| 20260905161314 | 30 | 188 | 1.6 | 3.2 | 0.00 | 0.00 | 0.00 | 68 | 1013.5 |
| 20260905160812 | 30 | 261 | 6.4 | 9.7 | 0.00 | 0.00 | 0.00 | 67 | 1013.3 |
| 20260905160307 | 30 | 138 | 1.6 | 3.2 | 0.00 | 0.00 | 0.00 | 68 | 1013.2 |
| 20260905155801 | 30 | 182 | 3.2 | 11.3 | 0.00 | 0.00 | 0.00 | 68 | 1013.3 |
| 20260905155255 | 30 | 250 | 6.4 | 8.0 | 0.00 | 0.00 | 0.00 | 69 | 1013.3 |
| 20260905154754 | 31 | 225 | 4.8 | 9.7 | 0.00 | 0.00 | 0.00 | 68 | 1013.3 |
| 20260905154251 | 31 | 212 | 1.6 | 11.3 | 0.00 | 0.00 | 0.00 | 68 | 1013.1 |
| 20260905153746 | 31 | 197 | 1.6 | 3.2 | 0.00 | 0.00 | 0.00 | 67 | 1013.1 |
| 20260905153242 | 30 | 196 | 6.4 | 9.7 | 0.00 | 0.00 | 0.00 | 67 | 1013.2 |
| 20260905152737 | 31 | 210 | 4.8 | 4.8 | 0.00 | 0.00 | 0.00 | 67 | 1013.1 |
| 20260905152236 | 30 | 215 | 3.2 | 11.3 | 0.00 | 0.00 | 0.00 | 68 | 1013.4 |
| 20260905151736 | 30 | 176 | 3.2 | 3.2 | 0.00 | 0.00 | 0.00 | 69 | 1013.3 |
| 20260905151233 | 30 | 231 | 4.8 | 9.7 | 0.00 | 0.00 | 0.00 | 69 | 1013.2 |
| 20260905150732 | 30 | 259 | 3.2 | 4.8 | 0.00 | 0.00 | 0.00 | 69 | 1013.4 |
| 20260905150231 | 29 | 257 | 4.8 | 3.2 | 0.00 | 0.00 | 0.00 | 70 | 1013.2 |
| 20260905145729 | 28 | 255 | 4.8 | 8.0 | 0.00 | 0.00 | 0.00 | 72 | 1013.4 |
| 20260905145224 | 28 | 252 | 6.4 | 9.7 | 0.00 | 0.00 | 0.00 | 73 | 1013.4 |
| 20260905144723 | 28 | 279 | 6.4 | 8.0 | 0.00 | 0.00 | 0.00 | 75 | 1013.2 |
| 20260905144218 | 28 | 279 | 6.4 | 8.0 | 0.00 | 0.00 | 0.00 | 76 | 1013.4 |
| 20260905143717 | 28 | 281 | 8.0 | 9.7 | 0.00 | 0.00 | 0.00 | 75 | 1013.4 |
| 20260905143217 | 29 | 230 | 3.2 | 3.2 | 0.00 | 0.00 | 0.00 | 72 | 1013.3 |
| 20260905142715 | 28 | 226 | 3.2 | 3.2 | 0.00 | 0.00 | 0.00 | 74 | 1013.2 |
| 20260905142210 | 28 | 229 | 3.2 | 3.2 | 0.00 | 0.00 | 0.00 | 75 | 1013.3 |
| 20260905141706 | 28 | 230 | 1.6 | 1.6 | 0.00 | 0.00 | 0.00 | 76 | 1013.2 |